Time;durP1;ratioP1;P1;durP2;ratioP2;P2;SDS_P1;SDS_P2;PMS_P1;PMS_P2;Temp;Humidity;BMP_temperature;BMP_pressure;BME280_temperature;BME280_humidity;BME280_pressure;Samples;Min_cycle;Max_cycle;Signal;HPM_P1;HPM_P2
2022/02/04 00:24:56;;;;;;;13.50;11.40;;;;;;;6.07;100.00;152920.09;5106237;28;20452;-81
2022/02/04 00:27:31;;;;;;;14.90;13.27;;;;;;;6.09;100.00;152926.53;5086776;28;20534;-81
2022/02/04 00:30:17;;;;;;;13.30;10.53;;;;;;;6.09;100.00;152926.53;5088028;28;20451;-81
2022/02/04 00:32:55;;;;;;;15.13;11.37;;;;;;;6.10;100.00;152927.84;5087340;28;20588;-81
2022/02/04 00:35:38;;;;;;;13.70;11.80;;;;;;;6.10;100.00;152929.13;5091174;28;20519;-81
2022/02/04 00:38:28;;;;;;;13.33;10.77;;;;;;;6.10;100.00;152929.13;5106024;28;20493;-81
2022/02/04 00:41:07;;;;;;;14.20;10.87;;;;;;;6.12;100.00;152932.97;5093968;28;20498;-81
2022/02/04 00:43:43;;;;;;;13.70;11.03;;;;;;;6.12;100.00;152932.97;5091394;28;20789;-81
2022/02/04 00:46:26;;;;;;;12.17;10.83;;;;;;;6.16;100.00;152942.03;5102734;28;20428;-81
2022/02/04 00:49:07;;;;;;;9.97;8.93;;;;;;;6.12;100.00;152934.28;5098719;28;20862;-81
2022/02/04 00:51:53;;;;;;;11.77;9.80;;;;;;;6.13;100.00;152936.88;5087893;28;20959;-80
2022/02/04 00:54:41;;;;;;;12.70;9.40;;;;;;;6.12;100.00;152932.97;5103570;28;20888;-80
2022/02/04 00:57:32;;;;;;;10.53;8.77;;;;;;;6.08;100.00;152923.97;5103990;28;20489;-80
2022/02/04 01:26:15;;;;;;;8.90;7.83;;;;;;;6.12;100.00;152934.28;5088044;28;20930;-80
2022/02/04 01:28:52;;;;;;;9.50;7.03;;;;;;;6.16;100.00;152942.03;5104845;28;20442;-80
2022/02/04 01:31:28;;;;;;;9.03;7.53;;;;;;;6.12;100.00;152934.28;5090900;28;20428;-80
2022/02/04 01:34:04;;;;;;;8.30;7.33;;;;;;;6.14;100.00;152938.19;5087821;28;20864;-80
2022/02/04 01:36:41;;;;;;;10.07;7.10;;;;;;;6.15;100.00;152940.72;5106869;28;20460;-80
2022/02/04 01:39:18;;;;;;;8.30;7.50;;;;;;;6.19;100.00;152949.78;5086437;28;20825;-80
2022/02/04 01:41:53;;;;;;;8.13;6.70;;;;;;;6.12;100.00;152934.28;5108313;28;20455;-81
2022/02/04 01:44:29;;;;;;;8.10;6.60;;;;;;;6.10;100.00;152927.84;5101311;28;20459;-81
2022/02/04 01:47:05;;;;;;;7.63;6.83;;;;;;;6.10;100.00;152929.13;5110091;28;20467;-81
2022/02/04 01:49:40;;;;;;;8.43;6.13;;;;;;;6.13;100.00;152936.88;5111968;28;20979;-81
2022/02/04 01:52:18;;;;;;;8.20;6.10;;;;;;;6.11;100.00;152931.72;5112563;28;20432;-77
2022/02/04 01:54:53;;;;;;;9.70;7.00;;;;;;;6.11;100.00;152931.72;5093381;28;20452;-78
2022/02/04 01:57:29;;;;;;;8.57;6.87;;;;;;;6.09;100.00;152925.22;5108224;28;20887;-78
2022/02/04 02:00:06;;;;;;;10.50;7.10;;;;;;;6.06;100.00;152917.53;5104190;28;20533;-78
2022/02/04 02:02:42;;;;;;;8.33;6.40;;;;;;;6.07;100.00;152920.09;5110685;28;20802;-78
2022/02/04 02:05:18;;;;;;;7.30;6.23;;;;;;;6.05;100.00;152914.94;5106181;28;20505;-78
2022/02/04 02:07:54;;;;;;;7.87;6.20;;;;;;;6.06;100.00;152918.78;5100542;28;20440;-78
2022/02/04 02:10:30;;;;;;;7.63;6.83;;;;;;;6.06;100.00;152918.78;5092398;28;20555;-78
2022/02/04 02:13:15;;;;;;;9.10;7.37;;;;;;;6.08;100.00;152923.97;5090675;28;20449;-78
2022/02/04 02:16:01;;;;;;;9.47;8.10;;;;;;;6.07;100.00;152921.38;5109169;27;20576;-78
2022/02/04 02:44:46;;;;;;;8.60;7.30;;;;;;;6.02;100.00;152908.50;5102443;27;20445;-77
2022/02/04 02:47:36;;;;;;;9.50;7.63;;;;;;;6.02;100.00;152907.19;5107204;28;20448;-77
2022/02/04 02:56:21;;;;;;;9.83;7.20;;;;;;;6.01;100.00;152905.88;5088867;28;20429;-78
2022/02/04 02:59:01;;;;;;;8.60;6.80;;;;;;;6.02;100.00;152907.19;5089248;28;20498;-78
2022/02/04 03:01:36;;;;;;;7.87;6.90;;;;;;;6.02;100.00;152907.19;5093257;28;20432;-78
2022/02/04 03:04:15;;;;;;;7.10;6.20;;;;;;;5.99;100.00;152900.75;5109718;28;20452;-78
2022/02/04 03:06:50;;;;;;;7.80;7.00;;;;;;;6.00;100.00;152903.34;5104793;28;20767;-78
2022/02/04 03:09:26;;;;;;;6.70;6.00;;;;;;;5.99;100.00;152900.75;5107063;28;20463;-78
2022/02/04 03:12:03;;;;;;;7.13;6.00;;;;;;;5.99;100.00;152900.75;5089990;28;20472;-78
2022/02/04 03:14:39;;;;;;;8.10;6.33;;;;;;;5.98;100.00;152898.16;5113712;27;20444;-77
2022/02/04 03:17:15;;;;;;;7.80;6.30;;;;;;;6.00;100.00;152903.34;5106912;28;20963;-77
2022/02/04 03:19:56;;;;;;;6.70;6.00;;;;;;;6.01;100.00;152905.88;5108656;28;20464;-78
2022/02/04 03:22:31;;;;;;;7.53;6.40;;;;;;;6.00;100.00;152903.34;5106565;28;20452;-78
2022/02/04 03:25:11;;;;;;;8.17;7.37;;;;;;;6.00;100.00;152902.03;5109036;28;20451;-78
2022/02/04 03:27:51;;;;;;;8.50;6.93;;;;;;;5.97;100.00;152895.59;5102841;28;20443;-78
2022/02/04 03:30:33;;;;;;;8.10;6.10;;;;;;;5.97;100.00;152895.59;5102246;28;20881;-77
2022/02/04 03:33:09;;;;;;;8.63;6.60;;;;;;;5.99;100.00;152900.75;5108845;28;20528;-78
2022/02/04 03:35:45;;;;;;;7.20;6.50;;;;;;;5.97;100.00;152894.28;5109530;28;20456;-78
2022/02/04 03:38:21;;;;;;;8.80;6.60;;;;;;;5.97;100.00;152895.59;5106854;28;20444;-78
2022/02/04 03:40:56;;;;;;;7.53;6.27;;;;;;;5.95;100.00;152890.44;5107355;28;20460;-78
2022/02/04 03:43:33;;;;;;;7.37;6.63;;;;;;;5.92;100.00;152882.69;5108070;28;20460;-78
2022/02/04 03:46:09;;;;;;;7.13;6.43;;;;;;;5.93;100.00;152885.25;5106726;28;20438;-78
2022/02/04 03:48:45;;;;;;;8.57;6.80;;;;;;;5.94;100.00;152887.84;5083147;28;20452;-78
2022/02/04 03:51:20;;;;;;;8.27;7.47;;;;;;;5.95;100.00;152890.44;5107671;28;20459;-77
2022/02/04 03:53:56;;;;;;;8.33;7.40;;;;;;;5.94;100.00;152887.84;5085408;28;20460;-77
2022/02/04 03:56:31;;;;;;;9.00;6.60;;;;;;;5.95;100.00;152889.16;5106030;28;20797;-77
2022/02/04 03:59:09;;;;;;;10.30;7.47;;;;;;;5.91;100.00;152880.09;5099027;28;20937;-77
2022/02/04 04:01:44;;;;;;;6.70;6.00;;;;;;;5.90;100.00;152877.56;5108571;28;20512;-77
2022/02/04 04:04:20;;;;;;;8.03;5.83;;;;;;;5.86;100.00;152867.22;5106874;28;20444;-77
2022/02/04 04:06:55;;;;;;;10.00;7.07;;;;;;;5.87;100.00;152868.50;5107309;28;20926;-77
2022/02/04 04:09:33;;;;;;;8.17;7.33;;;;;;;5.87;100.00;152869.81;5085334;28;20829;-77
2022/02/04 04:12:09;;;;;;;7.90;6.63;;;;;;;5.80;100.00;152851.66;5109354;27;20432;-77
2022/02/04 04:14:51;;;;;;;7.20;6.50;;;;;;;5.80;100.00;152851.66;5092241;28;20441;-77
2022/02/04 04:17:26;;;;;;;8.57;6.20;;;;;;;5.78;100.00;152845.22;5108925;27;20457;-77
2022/02/04 04:20:02;;;;;;;7.20;6.50;;;;;;;5.79;100.00;152847.81;5102732;28;20464;-77
2022/02/04 04:22:38;;;;;;;9.50;7.23;;;;;;;5.77;100.00;152843.94;5107067;28;20427;-77
2022/02/04 04:25:15;;;;;;;7.40;6.60;;;;;;;5.79;100.00;152849.13;5088299;28;20444;-77
2022/02/04 04:27:53;;;;;;;8.93;7.30;;;;;;;5.81;100.00;152854.28;5108862;28;20760;-77
2022/02/04 04:30:30;;;;;;;7.97;7.17;;;;;;;5.82;100.00;152855.56;5106699;28;20444;-77
2022/02/04 04:33:06;;;;;;;7.63;6.27;;;;;;;5.81;100.00;152854.28;5107679;28;20935;-77
2022/02/04 04:35:41;;;;;;;7.23;6.53;;;;;;;5.79;100.00;152847.81;5098266;28;20428;-77
2022/02/04 04:38:27;;;;;;;7.50;5.87;;;;;;;5.77;100.00;152843.94;5107185;28;20775;-77
2022/02/04 04:41:21;;;;;;;6.67;5.97;;;;;;;5.77;100.00;152843.94;5105413;28;20546;-78
2022/02/04 04:44:44;;;;;;;10.53;6.90;;;;;;;5.71;100.00;152828.47;5123901;28;20857;-77
2022/02/04 05:28:12;;;;;;;7.60;6.80;;;;;;;5.59;100.00;152797.50;5037832;28;21020;-77
2022/02/04 05:30:48;;;;;;;10.23;8.23;;;;;;;5.57;100.00;152792.38;5108855;28;20439;-78
2022/02/04 05:33:23;;;;;;;7.70;6.77;;;;;;;5.53;100.00;152783.31;5090648;28;20455;-77
2022/02/04 05:36:00;;;;;;;8.13;6.47;;;;;;;5.55;100.00;152787.22;5108440;28;20448;-77
2022/02/04 05:38:38;;;;;;;9.03;7.63;;;;;;;5.57;100.00;152792.38;5085927;28;20489;-77
2022/02/04 05:41:20;;;;;;;10.00;7.50;;;;;;;5.47;100.00;152767.88;5109813;28;20630;-78
2022/02/04 05:43:58;;;;;;;7.77;6.83;;;;;;;5.52;100.00;152779.47;5090916;28;20445;-77
2022/02/04 05:46:40;;;;;;;9.97;7.77;;;;;;;5.48;100.00;152769.19;5092417;28;20481;-77
2022/02/04 05:49:17;;;;;;;8.17;7.33;;;;;;;5.51;100.00;152776.88;5106458;28;20476;-77
2022/02/04 05:52:00;;;;;;;8.07;6.80;;;;;;;5.45;100.00;152762.69;5109378;28;20472;-77
2022/02/04 05:54:48;;;;;;;8.47;7.10;;;;;;;5.49;100.00;152773.03;5101488;28;20444;-77
2022/02/04 05:57:37;;;;;;;8.40;7.60;;;;;;;5.49;100.00;152773.03;5092478;28;21003;-77
2022/02/04 06:00:25;;;;;;;10.20;8.17;;;;;;;5.50;100.00;152774.31;5109671;28;20459;-77
2022/02/04 06:03:24;;;;;;;8.77;7.93;;;;;;;5.46;100.00;152764.00;5092234;28;20998;-77
2022/02/04 06:12:18;;;;;;;9.57;8.57;;;;;;;5.45;100.00;152762.69;5107930;27;20444;-77
2022/02/04 06:15:08;;;;;;;8.37;7.47;;;;;;;5.46;100.00;152765.28;5106959;28;20452;-77
2022/02/04 06:23:32;;;;;;;7.67;6.90;;;;;;;5.41;100.00;152752.41;5108008;28;20807;-77
2022/02/04 06:26:08;;;;;;;8.60;6.80;;;;;;;5.37;100.00;152740.81;5108708;28;20460;-77
2022/02/04 06:28:45;;;;;;;8.10;7.20;;;;;;;5.35;100.00;152735.63;5108026;28;20476;-77
2022/02/04 06:31:20;;;;;;;8.97;7.70;;;;;;;5.32;100.00;152729.16;5088204;27;20449;-77
2022/02/04 06:33:56;;;;;;;9.00;8.10;;;;;;;5.34;100.00;152733.06;5108898;28;20475;-77
2022/02/04 06:36:31;;;;;;;8.30;7.00;;;;;;;5.37;100.00;152740.81;5108349;28;20447;-77
2022/02/04 06:39:07;;;;;;;10.30;8.37;;;;;;;5.33;100.00;152730.47;5109434;28;20437;-77
2022/02/04 06:41:42;;;;;;;8.53;7.20;;;;;;;5.34;100.00;152733.06;5091972;28;20809;-77
2022/02/04 06:44:20;;;;;;;7.80;7.00;;;;;;;5.33;100.00;152730.47;5109907;28;20818;-77
2022/02/04 06:46:56;;;;;;;7.67;6.70;;;;;;;5.36;100.00;152738.22;5106260;28;20460;-77
2022/02/04 06:49:31;;;;;;;7.40;6.43;;;;;;;5.36;100.00;152738.22;5104762;28;20846;-78
2022/02/04 06:52:07;;;;;;;8.07;6.77;;;;;;;5.33;100.00;152730.47;5108339;27;20480;-77
2022/02/04 06:54:43;;;;;;;10.20;7.70;;;;;;;5.35;100.00;152736.91;5107008;28;20439;-77
2022/02/04 06:57:18;;;;;;;8.97;7.37;;;;;;;5.38;100.00;152743.34;5096451;28;20456;-77
2022/02/04 06:59:55;;;;;;;10.80;9.27;;;;;;;5.38;100.00;152743.34;5106398;28;20491;-77
2022/02/04 07:02:31;;;;;;;8.93;7.50;;;;;;;5.35;100.00;152736.91;5107165;28;20468;-77
2022/02/04 07:05:11;;;;;;;7.80;7.00;;;;;;;5.32;100.00;152727.91;5085582;28;20444;-77
2022/02/04 07:07:52;;;;;;;8.37;7.20;;;;;;;5.33;100.00;152730.47;5106068;27;20433;-77
2022/02/04 07:10:36;;;;;;;7.40;6.60;;;;;;;5.34;100.00;152733.06;5103848;28;20551;-77
2022/02/04 07:13:17;;;;;;;10.67;8.37;;;;;;;5.33;100.00;152730.47;5106036;28;20845;-77
2022/02/04 07:16:08;;;;;;;9.47;7.70;;;;;;;5.29;100.00;152721.47;5090267;28;20807;-77
2022/02/04 07:21:37;;;;;;;8.17;7.13;;;;;;;5.27;100.00;152716.28;5087643;28;20469;-77
2022/02/04 07:24:13;;;;;;;11.47;8.20;;;;;;;5.30;100.00;152724.03;5105563;28;20451;-77
2022/02/04 07:26:48;;;;;;;11.40;7.90;;;;;;;5.31;100.00;152726.63;5107216;28;20450;-77
2022/02/04 07:29:24;;;;;;;9.10;6.63;;;;;;;5.33;100.00;152731.78;5102019;28;20444;-77
2022/02/04 07:32:06;;;;;;;8.83;6.90;;;;;;;5.32;100.00;152729.16;5107028;28;20443;-77
2022/02/04 07:34:49;;;;;;;10.50;7.00;;;;;;;5.32;100.00;152727.91;5091196;28;20555;-77
2022/02/04 07:43:12;;;;;;;8.70;7.57;;;;;;;5.40;100.00;152748.56;5106932;27;20444;-78
2022/02/04 07:45:48;;;;;;;10.93;7.20;;;;;;;5.41;100.00;152751.09;5100552;28;20811;-77
2022/02/04 07:48:25;;;;;;;10.23;7.20;;;;;;;5.39;100.00;152745.94;5115819;27;20441;-77
2022/02/04 07:51:01;;;;;;;10.30;7.97;;;;;;;5.40;100.00;152748.56;5122491;27;20443;-77
2022/02/04 07:53:37;;;;;;;9.73;8.17;;;;;;;5.41;100.00;152751.09;5105977;28;20452;-77
2022/02/04 07:56:18;;;;;;;8.33;6.70;;;;;;;5.41;100.00;152751.09;5088392;28;20459;-77
2022/02/04 07:58:58;;;;;;;9.07;7.50;;;;;;;5.43;100.00;152756.25;5090057;28;20826;-77
2022/02/04 08:01:35;;;;;;;12.73;8.13;;;;;;;5.46;100.00;152765.28;5108309;27;20829;-77
2022/02/04 08:04:17;;;;;;;12.97;9.23;;;;;;;5.50;100.00;152775.63;5106823;28;20849;-76
2022/02/04 08:06:56;;;;;;;9.20;8.07;;;;;;;5.51;100.00;152776.88;5106105;28;20450;-77
2022/02/04 08:09:41;;;;;;;9.93;8.50;;;;;;;5.52;100.00;152779.47;5106181;28;20530;-77
2022/02/04 08:12:40;;;;;;;12.83;9.93;;;;;;;5.59;100.00;152796.25;5089564;28;20460;-77
2022/02/04 08:15:37;;;;;;;10.10;8.03;;;;;;;5.63;100.00;152807.84;5086672;28;20436;-77
2022/02/04 08:21:23;;;;;;;10.80;8.53;;;;;;;5.65;100.00;152813.00;5104406;28;20867;-78
2022/02/04 08:24:21;;;;;;;11.37;8.57;;;;;;;5.65;100.00;152813.00;5082789;28;20444;-77
2022/02/04 08:33:01;;;;;;;11.23;9.80;;;;;;;5.79;100.00;152849.13;5103641;28;20463;-78
2022/02/04 08:36:07;;;;;;;12.53;10.80;;;;;;;5.77;100.00;152842.69;5083835;28;20504;-78
2022/02/04 08:38:57;;;;;;;14.50;11.63;;;;;;;5.87;100.00;152869.81;5104558;28;20781;-77
2022/02/04 08:47:46;;;;;;;11.60;10.10;;;;;;;6.19;100.00;152951.06;5083911;28;20601;-78
2022/02/04 08:50:39;;;;;;;12.17;9.23;;;;;;;6.22;100.00;152957.53;5086651;28;20437;-78
2022/02/04 08:53:53;;;;;;;11.90;9.17;;;;;;;6.27;100.00;152970.41;5085395;28;20485;-77
2022/02/04 08:56:41;;;;;;;14.00;9.93;;;;;;;6.33;100.00;152987.16;5085360;28;20950;-77
2022/02/04 08:59:26;;;;;;;8.67;7.57;;;;;;;6.41;100.00;153006.53;5077610;28;20450;-77
2022/02/04 09:02:07;;;;;;;12.07;9.13;;;;;;;6.42;100.00;153009.13;5067171;28;20856;-77
2022/02/04 09:04:46;;;;;;;10.23;8.27;;;;;;;6.58;100.00;153050.41;5094352;28;20469;-77
2022/02/04 09:07:25;;;;;;;11.77;9.17;;;;;;;6.55;100.00;153042.66;5085934;28;20444;-77
2022/02/04 09:10:10;;;;;;;11.87;9.10;;;;;;;6.60;100.00;153055.56;5094609;28;20449;-77
2022/02/04 09:21:49;;;;;;;9.70;7.77;;;;;;;6.67;100.00;153074.91;5081356;28;20457;-77
2022/02/04 09:24:25;;;;;;;10.20;8.13;;;;;;;6.69;100.00;153078.81;5083398;28;20450;-77
2022/02/04 09:27:02;;;;;;;9.50;7.07;;;;;;;6.65;100.00;153069.78;5069373;28;20461;-77
2022/02/04 09:29:39;;;;;;;8.57;7.67;;;;;;;6.71;100.00;153083.97;5085729;28;20915;-77
2022/02/04 09:32:15;;;;;;;9.30;7.70;;;;;;;6.69;100.00;153078.81;5077807;28;20452;-77
2022/02/04 09:34:50;;;;;;;9.37;8.37;;;;;;;6.70;100.00;153082.66;5080840;28;20960;-77
2022/02/04 09:37:26;;;;;;;7.40;6.60;;;;;;;6.70;100.00;153081.38;5101685;28;20939;-77
2022/02/04 09:40:02;;;;;;;7.60;6.40;;;;;;;6.78;100.00;153102.03;5107332;28;20907;-77
2022/02/04 09:42:38;;;;;;;7.20;6.50;;;;;;;6.79;100.00;153104.63;5106570;28;20816;-77
2022/02/04 09:45:18;;;;;;;6.50;5.50;;;;;;;6.86;100.00;153122.69;5102131;28;20527;-78
2022/02/04 09:47:58;;;;;;;6.60;5.37;;;;;;;6.95;100.00;153145.94;5103246;28;20539;-78
2022/02/04 09:50:39;;;;;;;6.83;5.33;;;;;;;6.95;100.00;153145.94;5106149;28;20517;-77
2022/02/04 10:08:28;;;;;;;6.33;5.20;;;;;;;7.44;100.00;153269.91;5106117;28;20420;-78
2022/02/04 10:14:11;;;;;;;5.40;4.00;;;;;;;7.42;100.00;153264.69;5099753;28;20439;-77
2022/02/04 10:19:50;;;;;;;5.83;4.47;;;;;;;7.35;100.00;153249.25;5105688;28;20433;-77
2022/02/04 10:22:29;;;;;;;5.10;4.30;;;;;;;7.34;100.00;153246.63;5108186;28;20875;-78
2022/02/04 10:25:08;;;;;;;5.67;4.47;;;;;;;7.34;100.00;153245.34;5108985;28;20632;-77
2022/02/04 10:27:46;;;;;;;5.70;5.10;;;;;;;7.36;100.00;153251.78;5083623;28;20514;-77
2022/02/04 10:30:21;;;;;;;10.47;4.63;;;;;;;7.42;100.00;153266.00;5105056;28;20455;-77
2022/02/04 10:32:58;;;;;;;5.60;4.87;;;;;;;7.43;100.00;153268.59;5109255;28;20440;-77
2022/02/04 10:35:37;;;;;;;5.57;5.00;;;;;;;7.43;98.53;153268.59;5108237;28;20973;-77
2022/02/04 10:38:18;;;;;;;4.23;3.60;;;;;;;7.48;99.68;153280.22;5108164;28;20795;-77
2022/02/04 10:41:06;;;;;;;4.47;3.93;;;;;;;7.54;99.14;153295.72;5108948;28;20444;-77
2022/02/04 10:43:56;;;;;;;4.70;3.40;;;;;;;7.55;98.51;153298.28;5099432;28;20448;-76
2022/02/04 10:46:37;;;;;;;4.47;3.30;;;;;;;7.60;98.52;153312.50;5109032;28;20468;-77
2022/02/04 10:49:35;;;;;;;3.80;3.37;;;;;;;7.56;97.84;153302.19;5088366;28;20440;-77
2022/02/04 10:52:29;;;;;;;3.47;3.17;;;;;;;7.48;97.14;153280.22;5085615;28;20441;-77
2022/02/04 10:55:35;;;;;;;2.57;2.13;;;;;;;7.43;96.89;153267.31;5103513;28;20555;-77
2022/02/04 10:58:23;;;;;;;2.67;2.47;;;;;;;7.41;98.24;153263.44;5105435;28;20436;-76
2022/02/04 11:01:14;;;;;;;3.00;2.50;;;;;;;7.45;100.00;153272.47;5089121;28;20453;-77
2022/02/04 11:03:55;;;;;;;3.17;2.60;;;;;;;7.44;99.41;153269.91;5108460;28;20457;-76
2022/02/04 11:06:46;;;;;;;3.20;2.80;;;;;;;7.46;99.95;153275.06;5084450;28;20458;-77
2022/02/04 11:09:33;;;;;;;2.90;2.50;;;;;;;7.43;100.00;153268.59;5119936;27;20923;-76
2022/02/04 11:21:44;;;;;;;3.23;2.70;;;;;;;7.50;100.00;153285.38;5108576;28;20540;-76
2022/02/04 11:33:44;;;;;;;2.57;2.17;;;;;;;7.28;94.29;153231.13;5105263;28;20950;-76
2022/02/04 11:36:37;;;;;;;3.53;2.17;;;;;;;7.25;96.44;153223.38;5088178;28;20455;-76
2022/02/04 11:54:53;;;;;;;3.00;2.10;;;;;;;7.38;94.26;153255.69;5089742;28;20440;-76
2022/02/04 11:57:31;;;;;;;2.37;1.97;;;;;;;7.36;92.72;153251.78;5091581;28;20455;-76
2022/02/04 12:00:20;;;;;;;2.70;2.10;;;;;;;7.38;95.80;153255.69;5105975;28;20938;-77
2022/02/04 12:02:56;;;;;;;2.80;1.77;;;;;;;7.32;93.34;153241.47;5106371;28;20469;-76
2022/02/04 12:05:34;;;;;;;2.03;1.53;;;;;;;7.30;96.62;153236.34;5105597;28;20967;-76
2022/02/04 12:08:26;;;;;;;1.77;1.40;;;;;;;7.25;93.72;153223.38;5087124;28;20471;-76
2022/02/04 12:11:08;;;;;;;1.63;1.30;;;;;;;7.27;96.01;153228.56;5082659;28;20442;-76
2022/02/04 12:14:13;;;;;;;1.73;1.20;;;;;;;7.21;93.29;153213.06;5106838;28;20433;-76
2022/02/04 12:17:03;;;;;;;2.00;1.80;;;;;;;7.18;93.92;153205.31;5099162;28;20460;-77
2022/02/04 12:19:42;;;;;;;2.17;1.73;;;;;;;7.19;95.58;153207.91;5104738;28;20449;-77
2022/02/04 12:22:53;;;;;;;1.50;1.40;;;;;;;7.19;93.79;153207.91;5105607;28;20513;-77
2022/02/04 12:25:53;;;;;;;2.40;2.07;;;;;;;7.26;95.22;153224.66;5084259;28;20488;-77
2022/02/04 12:28:38;;;;;;;1.30;1.20;;;;;;;7.31;95.06;153238.88;5084412;28;20445;-77
2022/02/04 12:31:16;;;;;;;2.70;1.80;;;;;;;7.31;93.54;153238.88;5104064;28;20448;-77
2022/02/04 12:33:55;;;;;;;1.50;1.10;;;;;;;7.30;89.52;153236.34;5102156;28;20492;-77
2022/02/04 12:36:32;;;;;;;1.80;0.93;;;;;;;7.36;91.79;153251.78;5066959;28;20552;-77
2022/02/04 12:39:12;;;;;;;1.67;1.10;;;;;;;7.38;91.69;153254.41;5086963;28;20927;-77
2022/02/04 12:41:50;;;;;;;1.60;1.20;;;;;;;7.29;90.64;153233.72;5083263;28;20460;-77
2022/02/04 12:44:27;;;;;;;1.47;1.10;;;;;;;7.17;88.95;153202.75;5083585;28;20507;-77
2022/02/04 12:47:05;;;;;;;2.00;1.47;;;;;;;7.21;90.60;153213.06;5067062;28;20444;-77
2022/02/04 12:49:47;;;;;;;3.30;1.83;;;;;;;7.22;91.36;153214.38;5084312;28;20528;-77
2022/02/04 12:52:27;;;;;;;2.60;1.60;;;;;;;7.21;90.45;153213.06;5102215;28;20919;-77
2022/02/04 12:55:08;;;;;;;3.90;1.70;;;;;;;7.25;94.07;153222.13;5087775;28;20469;-77
2022/02/04 12:57:56;;;;;;;1.90;1.37;;;;;;;7.21;91.02;153213.06;5067994;28;20461;-77
2022/02/04 13:01:58;;;;;;;1.27;1.17;;;;;;;7.21;89.13;153213.06;5087064;28;20547;-77
2022/02/04 13:07:29;;;;;;;4.23;1.70;;;;;;;7.19;92.43;153207.91;5082264;28;20459;-77
2022/02/04 13:12:18;;;;;;;1.53;1.20;;;;;;;7.32;92.25;153241.47;5092846;28;20441;-77
2022/02/04 13:14:54;;;;;;;2.13;1.57;;;;;;;7.31;88.49;153238.88;5069908;28;20445;-77
2022/02/04 13:17:31;;;;;;;2.93;1.50;;;;;;;7.31;86.63;153238.88;5085070;28;20519;-76
2022/02/04 13:20:07;;;;;;;1.50;1.40;;;;;;;7.33;87.42;153244.03;5098237;28;20457;-77
2022/02/04 13:22:43;;;;;;;1.70;1.33;;;;;;;7.35;86.95;153247.94;5082715;28;20458;-77
2022/02/04 13:25:20;;;;;;;1.43;1.30;;;;;;;7.34;89.76;153245.34;5081747;28;20924;-77
2022/02/04 13:28:03;;;;;;;1.77;1.27;;;;;;;7.32;87.65;153241.47;5065737;28;20472;-77
2022/02/04 13:30:42;;;;;;;2.10;1.30;;;;;;;7.36;88.89;153251.78;5069223;28;20545;-77
2022/02/04 13:33:21;;;;;;;1.60;1.20;;;;;;;7.29;90.18;153233.72;5069882;28;20827;-77
2022/02/04 13:36:10;;;;;;;2.13;1.77;;;;;;;7.31;88.07;153238.88;5091894;28;20458;-77
2022/02/04 13:38:54;;;;;;;1.70;1.47;;;;;;;7.29;86.24;153233.72;5089211;28;20473;-77
2022/02/04 13:41:40;;;;;;;1.80;1.50;;;;;;;7.33;87.00;153244.03;5091285;28;20464;-77
2022/02/04 13:47:25;;;;;;;1.50;1.40;;;;;;;7.25;89.95;153223.38;5110389;28;20437;-77
2022/02/04 13:50:12;;;;;;;2.00;1.80;;;;;;;7.25;84.77;153223.38;5103624;28;20440;-77
2022/02/04 13:52:59;;;;;;;1.70;1.50;;;;;;;7.25;85.89;153222.13;5093070;28;20436;-78
2022/02/04 13:55:49;;;;;;;2.03;1.80;;;;;;;7.25;87.89;153223.38;5106138;28;20484;-77
2022/02/04 13:58:36;;;;;;;2.13;1.90;;;;;;;7.21;88.82;153211.78;5108487;28;20447;-76
2022/02/04 14:01:18;;;;;;;1.73;1.50;;;;;;;7.25;86.93;153222.13;5106833;28;20456;-76
2022/02/04 14:03:59;;;;;;;5.93;2.17;;;;;;;7.19;87.80;153206.63;5107169;28;20460;-76
2022/02/04 14:06:35;;;;;;;3.20;1.60;;;;;;;7.17;87.71;153202.75;5094218;28;20436;-76
2022/02/04 14:09:16;;;;;;;2.30;1.80;;;;;;;7.14;88.83;153195.00;5108293;27;20456;-76
2022/02/04 14:11:52;;;;;;;2.13;1.70;;;;;;;7.13;86.15;153191.09;5091440;28;20891;-76
2022/02/04 14:14:28;;;;;;;2.77;1.60;;;;;;;7.10;91.06;153183.34;5108158;27;20455;-76
2022/02/04 14:17:06;;;;;;;2.60;1.93;;;;;;;7.05;88.21;153171.75;5125260;27;20440;-76
2022/02/04 14:19:41;;;;;;;2.37;1.57;;;;;;;7.08;87.69;153179.50;5106859;28;20432;-77
2022/02/04 14:22:18;;;;;;;2.03;1.13;;;;;;;7.00;87.29;153158.84;5104287;28;20456;-76
2022/02/04 14:24:54;;;;;;;2.93;1.33;;;;;;;6.98;92.95;153153.69;5108999;28;20444;-76
2022/02/04 14:27:30;;;;;;;1.70;1.37;;;;;;;6.94;89.77;153143.34;5108487;28;20847;-76
2022/02/04 14:30:15;;;;;;;1.87;1.53;;;;;;;6.97;87.84;153149.78;5086436;28;20842;-76
2022/02/04 14:32:58;;;;;;;1.67;1.00;;;;;;;7.03;86.67;153165.28;5106719;28;20436;-76
2022/02/04 14:35:46;;;;;;;3.50;1.33;;;;;;;6.96;88.58;153148.53;5106280;28;20503;-76
2022/02/04 14:50:30;;;;;;;1.70;1.40;;;;;;;6.93;87.11;153139.47;5104633;28;20439;-76
2022/02/04 14:53:12;;;;;;;1.83;1.50;;;;;;;6.86;85.44;153122.69;5107579;28;20440;-76
2022/02/04 14:59:00;;;;;;;2.77;1.80;;;;;;;6.90;90.05;153133.03;5086311;28;20438;-76
2022/02/04 15:01:46;;;;;;;1.93;1.57;;;;;;;6.90;89.06;153133.03;5108896;28;20453;-76
2022/02/04 15:04:41;;;;;;;1.60;1.20;;;;;;;6.94;88.51;153142.03;5109647;28;20452;-76
2022/02/04 15:07:19;;;;;;;1.43;1.00;;;;;;;6.91;89.35;153134.34;5105539;28;20451;-76
2022/02/04 15:09:56;;;;;;;1.40;1.13;;;;;;;6.87;90.30;153125.28;5105116;28;20829;-76
2022/02/04 15:12:32;;;;;;;1.10;0.90;;;;;;;6.84;91.50;153117.53;5087918;28;20852;-76
2022/02/04 15:15:08;;;;;;;1.70;1.07;;;;;;;6.82;90.69;153112.38;5107037;28;20873;-76
2022/02/04 15:17:43;;;;;;;3.03;1.07;;;;;;;6.80;91.33;153107.22;5107392;28;20442;-76
2022/02/04 15:20:19;;;;;;;1.20;0.93;;;;;;;6.84;90.92;153117.53;5110091;27;20930;-76
2022/02/04 15:22:56;;;;;;;1.40;0.97;;;;;;;6.86;90.23;153122.69;5106162;28;20449;-76
2022/02/04 15:25:32;;;;;;;1.80;1.10;;;;;;;6.80;88.51;153105.91;5105394;28;20460;-76
2022/02/04 15:28:26;;;;;;;1.63;1.20;;;;;;;6.76;90.40;153096.88;5102545;28;20810;-76
2022/02/04 15:31:04;;;;;;;1.70;1.10;;;;;;;6.74;86.65;153091.72;5086252;28;20542;-76
2022/02/04 15:33:39;;;;;;;1.40;1.00;;;;;;;6.73;89.30;153089.13;5102221;28;20468;-76
2022/02/04 15:36:16;;;;;;;2.37;1.20;;;;;;;6.72;89.38;153086.56;5087338;28;20457;-76
2022/02/04 15:38:53;;;;;;;3.07;1.00;;;;;;;6.78;90.03;153100.78;5102478;28;20440;-75
2022/02/04 15:41:29;;;;;;;1.60;0.90;;;;;;;6.77;90.30;153099.47;5088371;28;20445;-77
2022/02/04 15:44:12;;;;;;;1.67;1.23;;;;;;;6.82;90.37;153111.06;5087048;28;20875;-77
2022/02/04 15:47:14;;;;;;;1.20;0.83;;;;;;;6.79;87.17;153103.31;5077456;28;20467;-77
2022/02/04 15:50:02;;;;;;;1.50;1.33;;;;;;;6.78;89.45;153102.03;5071173;28;20445;-77
2022/02/04 15:52:52;;;;;;;1.80;1.40;;;;;;;6.74;87.98;153093.03;5089081;28;20827;-76
2022/02/04 15:58:28;;;;;;;2.00;1.00;;;;;;;6.74;90.42;153091.72;5071572;28;20450;-77
2022/02/04 16:01:22;;;;;;;1.10;0.90;;;;;;;6.69;87.56;153078.81;5087084;28;20449;-77
2022/02/04 16:04:16;;;;;;;1.40;0.90;;;;;;;6.66;88.01;153072.38;5062887;28;20457;-77
2022/02/04 16:06:52;;;;;;;1.23;1.00;;;;;;;6.61;90.19;153058.16;5093579;28;20441;-77
2022/02/04 16:09:29;;;;;;;1.13;0.73;;;;;;;6.62;91.30;153062.03;5066749;28;20449;-77
2022/02/04 16:12:11;;;;;;;1.50;0.80;;;;;;;6.61;88.92;153058.16;5081521;28;20456;-77
2022/02/04 16:14:52;;;;;;;1.33;0.90;;;;;;;6.60;90.90;153055.56;5086164;28;20437;-77
2022/02/04 16:17:31;;;;;;;1.03;0.80;;;;;;;6.54;90.30;153040.13;5097455;28;20949;-77
2022/02/04 16:20:15;;;;;;;0.90;0.70;;;;;;;6.52;88.97;153034.91;5086979;28;20502;-78
2022/02/04 16:23:01;;;;;;;1.10;0.80;;;;;;;6.57;88.55;153047.81;5067454;28;20457;-77
2022/02/04 16:25:53;;;;;;;1.47;1.30;;;;;;;6.53;91.14;153037.50;5083850;28;20454;-77
2022/02/04 16:28:41;;;;;;;1.20;0.90;;;;;;;6.53;88.67;153037.50;5095161;28;20553;-77
2022/02/04 16:31:18;;;;;;;1.43;1.03;;;;;;;6.49;89.88;153027.16;5063813;28;20449;-78
2022/02/04 16:33:53;;;;;;;1.10;0.90;;;;;;;6.52;91.99;153034.91;5085683;28;20461;-77
2022/02/04 16:36:32;;;;;;;1.60;1.10;;;;;;;6.51;93.20;153032.38;5087573;28;20538;-75
2022/02/04 16:39:09;;;;;;;1.30;0.70;;;;;;;6.48;91.03;153024.63;5084985;28;20540;-77
2022/02/04 16:42:04;;;;;;;1.10;0.80;;;;;;;6.51;91.76;153032.38;5086590;28;20568;-78